Hlavní strana
METAR-TAF:

METAR-TAF

Letiště :

Letiště Bělehrad

Bělehrad, Srbsko

zeměpisná šířka: 44-49N, zeměpisná délka: 020-17E, výška: 96 m

Aktuální stav počasí

Zpráva byla vytvořena před 18 minutami, v 08:30 UTC
Jižní vítr 5 kt, proměnlivý mezi jihovýchodním a jihojihozápadním
Teplota 25°C
Vlhkost vzduchu 36%
Tlak 1021 hPa
Viditelnost 10 km a více
Žádná oblačnost pod 1500 m, nevyskytují se cumulonimby.

METAR: LYBE 200830Z 18005KT 140V200 CAVOK 25/09 Q1021 NOSIG

Čas: 10:48 (08:48 UTC)

Předpověď počasí

Zpráva byla vytvořena před 3 hodinami a 48 minutami, v 05:00 UTC
Předpověď platná od 20 v 06 UTC do 21 v 06 UTC
Jihojihovýchodní vítr 8 kt
Viditelnost 10 km a více
Žádná oblačnost pod 1500 m, nevyskytují se cumulonimby.

TAF: LYBE 200500Z 2006/2106 15008KT CAVOK TX29/2013Z TN15/2104Z

Stav a předpovědi počasí z více než 4 000 letišť (zprávy METAR a TAF).

Červené a žluté tečky na mapě představují dostupné meteorologické stanice.

Když kurzor umístíte na tečku, zobrazí se název stanice.

Pak kliknutím zobrazíte stav a předpověď počasí.

Chcete-li změnit mapu, kliknutím na zelené tlačítko se znaménkem +mapu přiblížíte, kliknutím na zelené tlačítko se znaménkem – mapu oddálíte a kliknutím na zelené šipky přejdete na sousední mapy.


METAR-TAF: